createdAt,value
2022-09-04T00:00:19.331Z,1.93
2022-09-04T00:03:17.294Z,2.07
2022-09-04T00:05:50.756Z,2.10
2022-09-04T00:08:32.854Z,2.20
2022-09-04T00:11:25.892Z,2.47
2022-09-04T00:14:02.972Z,2.70
2022-09-04T00:16:54.860Z,2.00
2022-09-04T00:19:45.260Z,2.37
2022-09-04T00:22:56.309Z,2.60
2022-09-04T00:26:21.141Z,2.20
2022-09-04T00:28:54.089Z,2.53
2022-09-04T00:31:42.097Z,2.47
2022-09-04T00:34:45.956Z,3.33
2022-09-04T00:37:22.265Z,2.80
2022-09-04T00:40:14.304Z,2.13
2022-09-04T00:42:50.058Z,2.40
2022-09-04T00:45:50.539Z,2.33
2022-09-04T00:48:42.397Z,3.00
2022-09-04T00:51:21.526Z,1.90
2022-09-04T00:54:13.881Z,2.40
2022-09-04T00:57:13.679Z,2.43
2022-09-04T01:00:07.317Z,2.37
2022-09-04T01:02:49.766Z,2.50
2022-09-04T01:05:56.434Z,2.67
2022-09-04T01:09:26.409Z,2.30
2022-09-04T01:12:24.534Z,2.20
2022-09-04T01:15:22.550Z,3.00
2022-09-04T01:18:17.210Z,2.30
2022-09-04T01:21:36.871Z,2.37
2022-09-04T01:24:38.526Z,3.03
2022-09-04T01:27:18.916Z,2.40
2022-09-04T01:30:09.506Z,2.63
2022-09-04T01:33:02.555Z,2.60
2022-09-04T01:35:55.720Z,2.47
2022-09-04T01:38:50.908Z,2.93
2022-09-04T01:41:38.286Z,2.40
2022-09-04T01:44:09.891Z,2.40
2022-09-04T01:46:54.594Z,2.23
2022-09-04T01:50:12.337Z,2.23
2022-09-04T01:53:06.539Z,1.90
2022-09-04T01:55:59.711Z,2.67
2022-09-04T01:58:52.843Z,2.47
2022-09-04T02:01:42.545Z,2.20
2022-09-04T02:04:34.770Z,2.50
2022-09-04T02:07:58.758Z,2.87
2022-09-04T02:10:46.446Z,2.83
2022-09-04T02:13:22.333Z,3.53
2022-09-04T02:16:14.854Z,3.67
2022-09-04T02:19:01.022Z,3.07
2022-09-04T02:21:36.877Z,3.50
2022-09-04T02:24:42.557Z,3.10
2022-09-04T02:27:29.144Z,2.20
2022-09-04T02:30:10.143Z,2.67
2022-09-04T02:32:55.856Z,2.90
2022-09-04T02:36:17.011Z,2.43
2022-09-04T02:39:08.461Z,2.40
2022-09-04T02:41:50.977Z,2.10
2022-09-04T02:44:34.453Z,2.50
2022-09-04T02:47:32.351Z,2.80
2022-09-04T02:50:50.395Z,3.03
2022-09-04T02:53:44.061Z,2.57
2022-09-04T02:56:47.947Z,2.40
2022-09-04T02:59:35.680Z,2.33
2022-09-04T03:02:35.945Z,3.27
2022-09-04T03:05:22.557Z,2.40
2022-09-04T03:08:08.981Z,2.70
2022-09-04T03:11:05.073Z,3.30
2022-09-04T03:14:06.911Z,3.00
2022-09-04T03:17:25.746Z,3.07
2022-09-04T03:20:06.128Z,3.10
2022-09-04T03:22:47.438Z,2.60
2022-09-04T03:25:56.023Z,3.00
2022-09-04T03:28:35.762Z,2.60
2022-09-04T03:31:46.620Z,2.73
2022-09-04T03:34:36.993Z,2.83
2022-09-04T03:37:22.730Z,4.10
2022-09-04T03:40:09.691Z,3.90
2022-09-04T03:42:58.134Z,3.80
2022-09-04T03:45:58.753Z,3.10
2022-09-04T03:49:26.753Z,3.47
2022-09-04T03:52:20.101Z,2.40
2022-09-04T03:55:19.223Z,2.50
2022-09-04T03:58:05.895Z,2.70
2022-09-04T04:01:34.681Z,2.73
2022-09-04T04:04:44.030Z,3.20
2022-09-04T04:07:50.180Z,3.60
2022-09-04T04:10:53.898Z,2.87
2022-09-04T04:13:37.105Z,3.90
2022-09-04T04:16:25.318Z,2.57
2022-09-04T04:19:21.036Z,2.70
2022-09-04T04:22:39.039Z,2.70
2022-09-04T04:25:52.633Z,2.30
2022-09-04T04:29:02.272Z,3.20
2022-09-04T04:32:19.167Z,2.77
2022-09-04T04:35:08.817Z,3.13
2022-09-04T04:37:52.999Z,2.60
2022-09-04T04:41:05.672Z,3.23
2022-09-04T04:44:16.408Z,3.70
2022-09-04T04:47:03.616Z,3.30
2022-09-04T04:50:04.234Z,3.87
2022-09-04T04:53:09.315Z,4.30
2022-09-04T04:56:15.409Z,4.20
2022-09-04T04:59:20.542Z,3.80
2022-09-04T05:02:21.631Z,2.90
2022-09-04T05:05:13.407Z,2.97
2022-09-04T05:08:14.843Z,3.27
2022-09-04T05:10:54.257Z,3.83
2022-09-04T05:13:39.175Z,3.67
2022-09-04T05:16:42.755Z,5.17
2022-09-04T05:19:50.399Z,4.33
2022-09-04T05:23:05.524Z,4.23
2022-09-04T05:25:55.433Z,5.07
2022-09-04T05:28:54.431Z,4.30
2022-09-04T05:31:56.907Z,4.40
2022-09-04T05:34:59.605Z,4.60
2022-09-04T05:38:00.748Z,4.20
2022-09-04T05:41:07.724Z,4.37
2022-09-04T05:43:56.603Z,12.67
2022-09-04T05:46:42.677Z,4.57
2022-09-04T05:49:45.551Z,5.00
2022-09-04T05:52:53.150Z,4.23
2022-09-04T05:56:14.625Z,4.87
2022-09-04T05:59:11.417Z,4.53
2022-09-04T06:02:04.839Z,4.47
2022-09-04T06:04:59.313Z,5.60
2022-09-04T06:08:00.304Z,4.83
2022-09-04T06:11:16.660Z,5.03
2022-09-04T06:14:06.903Z,5.27
2022-09-04T06:16:52.439Z,6.23
2022-09-04T06:19:45.315Z,4.90
2022-09-04T06:22:33.497Z,5.20
2022-09-04T06:25:22.466Z,5.63
2022-09-04T06:28:40.201Z,5.17
2022-09-04T06:31:19.086Z,5.23
2022-09-04T06:34:23.803Z,5.33
2022-09-04T06:37:20.306Z,5.47
2022-09-04T06:40:07.604Z,4.70
2022-09-04T06:43:08.256Z,4.80
2022-09-04T06:46:16.253Z,5.07
2022-09-04T06:49:24.038Z,5.37
2022-09-04T06:52:12.936Z,4.80
2022-09-04T06:55:10.917Z,5.03
2022-09-04T06:58:20.867Z,5.27
2022-09-04T07:01:02.439Z,5.20
2022-09-04T07:04:03.796Z,5.00
2022-09-04T07:07:08.186Z,4.20
2022-09-04T07:09:43.962Z,4.40
2022-09-04T07:13:17.494Z,4.53
2022-09-04T07:16:10.126Z,4.57
2022-09-04T07:19:24.983Z,4.13
2022-09-04T07:22:41.935Z,4.50
2022-09-04T07:25:44.135Z,4.17
2022-09-04T07:29:16.977Z,4.00
2022-09-04T07:31:59.484Z,3.93
2022-09-04T07:34:55.950Z,4.73
2022-09-04T07:37:50.225Z,4.60
2022-09-04T07:40:27.932Z,4.43
2022-09-04T07:43:22.148Z,4.03
2022-09-04T07:46:03.302Z,4.43
2022-09-04T07:49:09.575Z,4.27
2022-09-04T07:52:25.841Z,4.03
2022-09-04T07:55:13.751Z,4.30
2022-09-04T07:58:02.506Z,4.57
2022-09-04T08:00:44.459Z,3.50
2022-09-04T08:03:54.434Z,3.97
2022-09-04T08:06:39.809Z,3.73
2022-09-04T08:09:55.854Z,3.87
2022-09-04T08:12:56.244Z,3.77
2022-09-04T08:15:46.376Z,3.67
2022-09-04T08:19:03.894Z,3.27
2022-09-04T08:21:42.942Z,3.23
2022-09-04T08:25:03.330Z,3.27
2022-09-04T08:28:17.508Z,2.67
2022-09-04T08:31:08.064Z,2.90
2022-09-04T08:34:15.143Z,2.77
2022-09-04T08:37:21.366Z,3.03
2022-09-04T08:40:18.569Z,2.30
2022-09-04T08:43:29.650Z,2.80
2022-09-04T08:46:49.278Z,2.50
2022-09-04T08:49:46.954Z,2.27
2022-09-04T08:53:03.859Z,2.40
2022-09-04T08:55:46.153Z,2.13
2022-09-04T08:59:01.265Z,2.47
2022-09-04T09:02:40.059Z,2.75
2022-09-04T09:05:58.153Z,2.70
2022-09-04T09:08:57.065Z,2.30
2022-09-04T09:11:54.146Z,2.13
2022-09-04T09:15:05.964Z,1.90
2022-09-04T09:18:17.634Z,2.05
2022-09-04T09:21:10.592Z,2.30
2022-09-04T09:24:32.234Z,2.45
2022-09-04T09:27:33.192Z,2.40
2022-09-04T09:30:12.230Z,2.13
2022-09-04T09:33:16.746Z,2.20
2022-09-04T09:36:29.899Z,2.10
2022-09-04T09:39:28.032Z,2.72
2022-09-04T09:42:42.440Z,3.03
2022-09-04T09:45:58.283Z,2.88
2022-09-04T09:48:50.385Z,2.92
2022-09-04T09:52:06.965Z,2.65
2022-09-04T09:55:17.474Z,2.20
2022-09-04T09:58:21.175Z,2.47
2022-09-04T10:01:09.221Z,2.90
2022-09-04T10:03:39.320Z,2.72
2022-09-04T10:07:02.145Z,4.18
2022-09-04T10:10:19.600Z,4.05
2022-09-04T10:13:30.205Z,2.92
2022-09-04T10:16:27.789Z,3.05
2022-09-04T10:19:31.527Z,3.80
2022-09-04T10:22:31.388Z,2.55
2022-09-04T10:25:16.116Z,3.13
2022-09-04T10:28:15.773Z,3.65
2022-09-04T10:31:17.375Z,3.35
2022-09-04T10:34:13.229Z,4.18
2022-09-04T10:37:08.875Z,2.83
2022-09-04T10:40:09.884Z,2.60
2022-09-04T10:42:52.616Z,2.42
2022-09-04T10:45:32.341Z,2.03
2022-09-04T10:48:29.189Z,2.30
2022-09-04T10:51:13.569Z,2.10
2022-09-04T10:54:18.555Z,2.15
2022-09-04T10:57:08.804Z,2.35
2022-09-04T10:59:59.382Z,2.28
2022-09-04T11:03:06.487Z,2.00
2022-09-04T11:05:44.386Z,1.90
2022-09-04T11:08:45.370Z,2.20
2022-09-04T11:12:09.350Z,1.85
2022-09-04T11:15:21.692Z,2.20
2022-09-04T11:18:41.267Z,3.13
2022-09-04T11:21:47.694Z,2.20
2022-09-04T11:24:50.183Z,1.85
2022-09-04T11:27:35.122Z,1.90
2022-09-04T11:30:26.642Z,2.03
2022-09-04T11:33:28.240Z,2.15
2022-09-04T11:36:08.278Z,1.70
2022-09-04T11:39:20.427Z,2.33
2022-09-04T11:42:08.272Z,1.50
2022-09-04T11:45:00.370Z,1.50
2022-09-04T11:47:45.447Z,1.80
2022-09-04T11:50:24.060Z,2.00
2022-09-04T11:53:34.987Z,1.60
2022-09-04T11:56:44.541Z,2.00
2022-09-04T11:59:45.478Z,1.60
2022-09-04T12:02:54.137Z,1.38
2022-09-04T12:06:04.111Z,1.30
2022-09-04T12:09:17.247Z,1.65
2022-09-04T12:12:08.507Z,1.20
2022-09-04T12:14:44.198Z,1.50
2022-09-04T12:18:13.372Z,1.67
2022-09-04T12:21:18.155Z,1.17
2022-09-04T12:24:55.136Z,1.40
2022-09-04T12:27:51.899Z,1.40
2022-09-04T12:30:29.493Z,1.25
2022-09-04T12:33:19.639Z,1.33
2022-09-04T12:36:06.134Z,1.27
2022-09-04T12:39:16.044Z,1.30
2022-09-04T12:42:01.532Z,1.20
2022-09-04T12:45:25.826Z,1.45
2022-09-04T12:48:36.166Z,1.38
2022-09-04T12:51:25.122Z,1.55
2022-09-04T12:54:19.891Z,2.10
2022-09-04T12:57:22.481Z,1.60
2022-09-04T13:00:12.886Z,1.40
2022-09-04T13:02:58.634Z,2.10
2022-09-04T13:06:15.274Z,1.08
2022-09-04T13:09:03.194Z,0.95
2022-09-04T13:12:01.550Z,0.90
2022-09-04T13:14:47.863Z,1.20
2022-09-04T13:17:53.719Z,1.05
2022-09-04T13:20:35.034Z,1.25
2022-09-04T13:23:14.113Z,1.50
2022-09-04T13:27:02.463Z,1.40
2022-09-04T13:30:03.318Z,1.00
2022-09-04T13:32:43.479Z,1.33
2022-09-04T13:36:01.554Z,1.27
2022-09-04T13:38:47.274Z,1.10
2022-09-04T13:42:15.178Z,1.23
2022-09-04T13:45:09.040Z,1.08
2022-09-04T13:48:10.300Z,0.90
2022-09-04T13:50:59.611Z,0.80
2022-09-04T13:53:36.283Z,0.77
2022-09-04T13:56:28.413Z,0.93
2022-09-04T13:59:09.408Z,0.88
2022-09-04T14:01:46.095Z,0.70
2022-09-04T14:04:34.711Z,1.10
2022-09-04T14:07:11.737Z,1.10
2022-09-04T14:09:47.270Z,0.80
2022-09-04T14:12:38.919Z,0.90
2022-09-04T14:15:48.080Z,0.88
2022-09-04T14:18:50.560Z,1.00
2022-09-04T14:21:29.466Z,1.50
2022-09-04T14:24:38.465Z,1.10
2022-09-04T14:27:36.255Z,0.95
2022-09-04T14:30:15.586Z,0.98
2022-09-04T14:33:18.904Z,0.85
2022-09-04T14:36:27.370Z,1.65
2022-09-04T14:39:18.130Z,0.75
2022-09-04T14:42:25.571Z,0.80
2022-09-04T14:45:12.437Z,0.80
2022-09-04T14:47:55.566Z,0.90
2022-09-04T14:50:30.974Z,0.90
2022-09-04T14:53:05.654Z,0.98
2022-09-04T14:56:04.817Z,1.73
2022-09-04T14:58:54.288Z,0.80
2022-09-04T15:01:26.268Z,1.30
2022-09-04T15:04:34.037Z,1.10
2022-09-04T15:07:30.665Z,0.80
2022-09-04T15:10:50.891Z,0.70
2022-09-04T15:13:33.521Z,0.60
2022-09-04T15:16:40.743Z,0.60
2022-09-04T15:19:26.890Z,0.70
2022-09-04T15:22:12.582Z,0.70
2022-09-04T15:25:08.933Z,0.60
2022-09-04T15:28:06.098Z,0.82
2022-09-04T15:30:45.526Z,1.20
2022-09-04T15:33:19.551Z,0.70
2022-09-04T15:36:16.005Z,0.90
2022-09-04T15:38:54.064Z,0.82
2022-09-04T15:41:37.416Z,0.85
2022-09-04T15:44:46.983Z,0.60
2022-09-04T15:47:24.209Z,0.80
2022-09-04T15:50:05.830Z,0.65
2022-09-04T15:52:53.790Z,0.80
2022-09-04T15:55:31.375Z,0.73
2022-09-04T15:58:37.728Z,0.70
2022-09-04T16:01:26.753Z,0.70
2022-09-04T16:04:28.734Z,0.70
2022-09-04T16:07:20.400Z,0.60
2022-09-04T16:09:58.943Z,1.20
2022-09-04T16:12:49.660Z,1.13
2022-09-04T16:15:30.560Z,0.73
2022-09-04T16:18:08.722Z,1.02
2022-09-04T16:20:51.286Z,0.80
2022-09-04T16:23:29.654Z,0.93
2022-09-04T16:25:59.832Z,2.00
2022-09-04T16:28:43.649Z,0.77
2022-09-04T16:31:15.742Z,0.82
2022-09-04T16:33:44.407Z,0.90
2022-09-04T16:36:31.341Z,1.42
2022-09-04T16:39:13.352Z,1.02
2022-09-04T16:42:12.324Z,0.88
2022-09-04T16:45:16.427Z,0.85
2022-09-04T16:47:59.106Z,3.67
2022-09-04T16:51:33.282Z,1.75
2022-09-04T16:54:10.401Z,0.80
2022-09-04T16:56:50.687Z,0.88
2022-09-04T16:59:35.609Z,1.15
2022-09-04T17:02:21.216Z,0.90
2022-09-04T17:05:03.701Z,0.95
2022-09-04T17:08:10.270Z,1.00
2022-09-04T17:10:54.832Z,0.98
2022-09-04T17:13:48.686Z,0.80
2022-09-04T17:16:25.733Z,3.28
2022-09-04T17:18:55.789Z,4.22
2022-09-04T17:28:56.761Z,2.13
2022-09-04T17:29:12.274Z,1.00
2022-09-04T17:29:29.786Z,0.90
2022-09-04T17:32:26.286Z,0.70
2022-09-04T17:40:01.806Z,0.80
2022-09-04T17:40:54.280Z,0.90
2022-09-04T17:42:06.807Z,0.80
2022-09-04T17:45:09.540Z,0.90
2022-09-04T17:47:42.588Z,0.80
2022-09-04T17:50:22.557Z,0.85
2022-09-04T17:53:13.131Z,0.88
2022-09-04T17:56:08.246Z,1.00
2022-09-04T17:58:49.572Z,1.08
2022-09-04T18:02:01.217Z,1.00
2022-09-04T18:04:47.047Z,1.00
2022-09-04T18:08:07.732Z,1.00
2022-09-04T18:10:37.004Z,0.90
2022-09-04T18:13:37.862Z,2.17
2022-09-04T18:16:33.890Z,1.35
2022-09-04T18:19:19.670Z,1.73
2022-09-04T18:22:25.630Z,1.80
2022-09-04T18:24:59.372Z,1.83
2022-09-04T18:28:11.479Z,1.48
2022-09-04T18:37:09.974Z,1.48
2022-09-04T18:37:16.829Z,1.60
2022-09-04T18:38:08.888Z,1.98
2022-09-04T18:42:21.831Z,1.80
2022-09-04T18:50:20.229Z,2.00
2022-09-04T18:50:39.983Z,1.67
2022-09-04T18:50:44.950Z,1.45
2022-09-04T18:52:23.233Z,1.70
2022-09-04T18:55:08.926Z,1.63
2022-09-04T18:57:55.098Z,1.80
2022-09-04T19:00:34.803Z,1.43
2022-09-04T19:03:25.541Z,1.30
2022-09-04T19:05:59.297Z,1.57
2022-09-04T19:08:34.446Z,1.77
2022-09-04T19:11:23.202Z,1.77
2022-09-04T19:14:15.392Z,1.77
2022-09-04T19:17:05.600Z,1.50
2022-09-04T19:19:51.454Z,1.73
2022-09-04T19:22:43.162Z,1.70
2022-09-04T19:25:18.886Z,1.73
2022-09-04T19:28:07.301Z,1.60
2022-09-04T19:30:58.090Z,1.83
2022-09-04T19:33:51.009Z,1.77
2022-09-04T19:36:34.037Z,1.67
2022-09-04T19:46:04.308Z,1.90
2022-09-04T19:46:09.323Z,2.17
2022-09-04T19:46:18.374Z,2.00
2022-09-04T19:49:25.512Z,1.50
2022-09-04T19:53:35.516Z,1.73
2022-09-04T19:54:44.805Z,2.30
2022-09-04T19:57:42.286Z,2.00
2022-09-04T20:00:42.777Z,1.63
2022-09-04T20:03:28.963Z,1.43
2022-09-04T20:06:20.246Z,2.47
2022-09-04T20:09:21.697Z,1.90
2022-09-04T20:12:13.616Z,2.37
2022-09-04T20:14:56.026Z,2.20
2022-09-04T20:17:35.187Z,1.93
2022-09-04T20:20:14.961Z,2.13
2022-09-04T20:22:49.868Z,1.83
2022-09-04T20:25:40.256Z,2.17
2022-09-04T20:28:54.807Z,1.77
2022-09-04T20:31:35.321Z,1.97
2022-09-04T20:34:29.483Z,1.97
2022-09-04T20:37:25.577Z,2.00
2022-09-04T20:40:26.771Z,2.00
2022-09-04T20:43:03.065Z,2.07
2022-09-04T20:48:03.664Z,2.60
2022-09-04T20:52:49.297Z,2.47
2022-09-04T20:52:59.850Z,2.33
2022-09-04T20:55:32.582Z,2.50
2022-09-04T21:03:05.695Z,2.10
2022-09-04T21:03:22.399Z,1.80
2022-09-04T21:04:47.985Z,2.17
2022-09-04T21:07:49.804Z,2.57
2022-09-04T21:10:41.955Z,3.23
2022-09-04T21:13:33.167Z,3.30
2022-09-04T21:17:29.212Z,3.33
2022-09-04T21:20:51.872Z,2.77
2022-09-04T21:24:10.292Z,1.87
2022-09-04T21:27:09.311Z,2.03
2022-09-04T21:29:49.664Z,1.80
2022-09-04T21:32:46.919Z,2.43
2022-09-04T21:35:31.384Z,2.60
2022-09-04T21:38:19.461Z,2.60
2022-09-04T21:41:40.854Z,2.63
2022-09-04T21:45:01.062Z,2.07
2022-09-04T21:48:18.158Z,2.70
2022-09-04T21:51:28.647Z,2.97
2022-09-04T21:55:26.668Z,2.93
2022-09-04T22:02:31.820Z,2.37
2022-09-04T22:02:39.335Z,3.50
2022-09-04T22:04:42.763Z,3.27
2022-09-04T22:11:44.611Z,2.63
2022-09-04T22:13:39.704Z,2.40
2022-09-04T22:14:21.251Z,2.73
2022-09-04T22:17:09.561Z,3.63
2022-09-04T22:20:43.117Z,3.10
2022-09-04T22:24:10.735Z,2.87
2022-09-04T22:27:13.967Z,2.63
2022-09-04T22:29:55.579Z,2.23
2022-09-04T22:33:03.699Z,2.00
2022-09-04T22:36:25.763Z,2.40
2022-09-04T22:39:14.607Z,2.00
2022-09-04T22:42:20.291Z,2.77
2022-09-04T22:45:11.575Z,3.10
2022-09-04T22:48:12.405Z,2.30
2022-09-04T22:51:22.597Z,2.93
2022-09-04T22:54:17.292Z,2.40
2022-09-04T22:57:01.528Z,2.40
2022-09-04T23:00:02.410Z,2.50
2022-09-04T23:03:08.850Z,2.10
2022-09-04T23:08:53.496Z,2.30
2022-09-04T23:13:58.276Z,2.97
2022-09-04T23:13:58.563Z,2.57
2022-09-04T23:16:28.367Z,2.67
2022-09-04T23:23:30.610Z,2.37
2022-09-04T23:26:43.053Z,2.30
2022-09-04T23:26:58.060Z,2.90
2022-09-04T23:30:02.248Z,2.30
2022-09-04T23:33:06.665Z,3.13
2022-09-04T23:36:01.013Z,2.90
2022-09-04T23:39:18.207Z,2.60
2022-09-04T23:42:15.589Z,2.60
2022-09-04T23:45:04.947Z,3.20
2022-09-04T23:48:24.993Z,2.50
2022-09-04T23:51:15.261Z,3.43
2022-09-04T23:54:12.770Z,2.20
2022-09-04T23:57:08.156Z,2.27
